sensor_id;sensor_type;location;lat;lon;timestamp;pressure;altitude;pressure_sealevel;temperature;humidity
8637;BME280;4356;49.068;8.658;2023-05-19T00:01:06;100459.25;;;22.00;37.80
8637;BME280;4356;49.068;8.658;2023-05-19T00:03:36;100461.38;;;21.98;37.73
8637;BME280;4356;49.068;8.658;2023-05-19T00:06:06;100449.03;;;21.96;37.79
8637;BME280;4356;49.068;8.658;2023-05-19T00:08:36;100454.09;;;21.92;38.05
8637;BME280;4356;49.068;8.658;2023-05-19T00:11:02;100449.31;;;21.88;37.78
8637;BME280;4356;49.068;8.658;2023-05-19T00:13:28;100454.09;;;21.92;38.02
8637;BME280;4356;49.068;8.658;2023-05-19T00:15:54;100436.50;;;21.88;37.90
8637;BME280;4356;49.068;8.658;2023-05-19T00:18:20;100446.97;;;21.91;37.90
8637;BME280;4356;49.068;8.658;2023-05-19T00:20:45;100432.53;;;21.84;37.85
8637;BME280;4356;49.068;8.658;2023-05-19T00:23:11;100430.84;;;21.83;37.82
8637;BME280;4356;49.068;8.658;2023-05-19T00:25:36;100447.88;;;21.85;37.82
8637;BME280;4356;49.068;8.658;2023-05-19T00:28:02;100432.00;;;21.76;37.79
8637;BME280;4356;49.068;8.658;2023-05-19T00:30:28;100443.34;;;21.79;37.96
8637;BME280;4356;49.068;8.658;2023-05-19T00:32:54;100449.63;;;21.80;37.91
8637;BME280;4356;49.068;8.658;2023-05-19T00:35:20;100455.31;;;21.78;37.95
8637;BME280;4356;49.068;8.658;2023-05-19T00:37:47;100466.03;;;21.80;37.95
8637;BME280;4356;49.068;8.658;2023-05-19T00:40:13;100454.69;;;21.76;38.37
8637;BME280;4356;49.068;8.658;2023-05-19T00:42:39;100458.50;;;21.75;38.09
8637;BME280;4356;49.068;8.658;2023-05-19T00:45:06;100457.44;;;21.76;38.21
8637;BME280;4356;49.068;8.658;2023-05-19T00:47:31;100439.06;;;21.65;38.24
8637;BME280;4356;49.068;8.658;2023-05-19T00:49:57;100450.16;;;21.70;38.21
8637;BME280;4356;49.068;8.658;2023-05-19T00:52:23;100445.13;;;21.67;38.01
8637;BME280;4356;49.068;8.658;2023-05-19T00:54:49;100452.28;;;21.68;38.11
8637;BME280;4356;49.068;8.658;2023-05-19T00:57:15;100442.88;;;21.64;38.32
8637;BME280;4356;49.068;8.658;2023-05-19T00:59:41;100447.50;;;21.64;38.34
8637;BME280;4356;49.068;8.658;2023-05-19T01:02:06;100445.22;;;21.61;38.38
8637;BME280;4356;49.068;8.658;2023-05-19T01:04:32;100443.53;;;21.60;38.33
8637;BME280;4356;49.068;8.658;2023-05-19T01:06:59;100445.00;;;21.62;38.27
8637;BME280;4356;49.068;8.658;2023-05-19T01:09:25;100438.31;;;21.58;38.28
8637;BME280;4356;49.068;8.658;2023-05-19T01:11:51;100438.91;;;21.60;38.30
8637;BME280;4356;49.068;8.658;2023-05-19T01:14:18;100436.41;;;21.59;38.22
8637;BME280;4356;49.068;8.658;2023-05-19T01:17:00;100434.16;;;21.56;38.22
8637;BME280;4356;49.068;8.658;2023-05-19T01:31:00;100436.34;;;21.47;38.53
8637;BME280;4356;49.068;8.658;2023-05-19T01:33:29;100434.69;;;21.46;38.62
8637;BME280;4356;49.068;8.658;2023-05-19T01:35:57;100427.38;;;21.40;38.81
8637;BME280;4356;49.068;8.658;2023-05-19T01:38:24;100428.00;;;21.42;38.63
8637;BME280;4356;49.068;8.658;2023-05-19T01:40:51;100420.84;;;21.41;38.71
8637;BME280;4356;49.068;8.658;2023-05-19T01:43:21;100419.41;;;21.38;38.55
8637;BME280;4356;49.068;8.658;2023-05-19T01:45:48;100420.72;;;21.36;38.50
8637;BME280;4356;49.068;8.658;2023-05-19T01:48:14;100429.50;;;21.38;38.58
8637;BME280;4356;49.068;8.658;2023-05-19T01:50:41;100428.91;;;21.36;38.44
8637;BME280;4356;49.068;8.658;2023-05-19T01:53:07;100426.38;;;21.34;38.63
8637;BME280;4356;49.068;8.658;2023-05-19T01:55:34;100441.50;;;21.37;38.48
8637;BME280;4356;49.068;8.658;2023-05-19T02:03:41;100441.13;;;21.33;38.72
8637;BME280;4356;49.068;8.658;2023-05-19T02:06:31;100435.06;;;21.31;38.46
8637;BME280;4356;49.068;8.658;2023-05-19T02:12:05;100440.16;;;21.28;38.64
8637;BME280;4356;49.068;8.658;2023-05-19T02:15:06;100448.34;;;21.28;38.65
8637;BME280;4356;49.068;8.658;2023-05-19T02:17:36;100449.00;;;21.23;38.69
8637;BME280;4356;49.068;8.658;2023-05-19T02:20:03;100451.16;;;21.21;38.57
8637;BME280;4356;49.068;8.658;2023-05-19T02:22:30;100456.41;;;21.23;38.63
8637;BME280;4356;49.068;8.658;2023-05-19T02:24:55;100450.31;;;21.21;38.83
8637;BME280;4356;49.068;8.658;2023-05-19T02:27:22;100442.56;;;21.18;38.63
8637;BME280;4356;49.068;8.658;2023-05-19T02:29:47;100447.59;;;21.21;38.94
8637;BME280;4356;49.068;8.658;2023-05-19T02:32:13;100443.41;;;21.18;38.65
8637;BME280;4356;49.068;8.658;2023-05-19T02:34:39;100436.50;;;21.16;38.65
8637;BME280;4356;49.068;8.658;2023-05-19T02:37:06;100437.31;;;21.16;38.60
8637;BME280;4356;49.068;8.658;2023-05-19T02:39:32;100438.41;;;21.15;38.60
8637;BME280;4356;49.068;8.658;2023-05-19T02:42:00;100438.63;;;21.14;38.62
8637;BME280;4356;49.068;8.658;2023-05-19T02:44:25;100438.41;;;21.15;38.74
8637;BME280;4356;49.068;8.658;2023-05-19T02:46:51;100434.19;;;21.13;38.73
8637;BME280;4356;49.068;8.658;2023-05-19T02:49:16;100437.78;;;21.13;38.77
8637;BME280;4356;49.068;8.658;2023-05-19T02:51:42;100428.34;;;21.09;38.72
8637;BME280;4356;49.068;8.658;2023-05-19T02:54:07;100440.75;;;21.12;38.71
8637;BME280;4356;49.068;8.658;2023-05-19T02:56:33;100427.50;;;21.09;38.71
8637;BME280;4356;49.068;8.658;2023-05-19T02:58:58;100434.06;;;21.08;38.73
8637;BME280;4356;49.068;8.658;2023-05-19T03:01:25;100434.91;;;21.08;38.77
8637;BME280;4356;49.068;8.658;2023-05-19T03:03:50;100429.66;;;21.07;38.62
8637;BME280;4356;49.068;8.658;2023-05-19T03:06:16;100418.53;;;21.02;38.79
8637;BME280;4356;49.068;8.658;2023-05-19T03:08:42;100426.31;;;21.05;38.67
8637;BME280;4356;49.068;8.658;2023-05-19T03:11:08;100425.69;;;21.03;38.83
8637;BME280;4356;49.068;8.658;2023-05-19T03:13:33;100422.34;;;21.01;38.76
8637;BME280;4356;49.068;8.658;2023-05-19T03:16:02;100418.78;;;21.00;38.66
8637;BME280;4356;49.068;8.658;2023-05-19T03:18:27;100419.41;;;21.02;38.71
8637;BME280;4356;49.068;8.658;2023-05-19T03:20:53;100414.38;;;20.99;38.82
8637;BME280;4356;49.068;8.658;2023-05-19T03:23:20;100416.47;;;20.97;38.75
8637;BME280;4356;49.068;8.658;2023-05-19T03:25:45;100415.41;;;20.98;38.83
8637;BME280;4356;49.068;8.658;2023-05-19T03:28:12;100418.97;;;20.99;38.93
8637;BME280;4356;49.068;8.658;2023-05-19T03:30:37;100411.25;;;20.96;38.74
8637;BME280;4356;49.068;8.658;2023-05-19T03:33:03;100421.72;;;20.99;38.68
8637;BME280;4356;49.068;8.658;2023-05-19T03:35:29;100424.06;;;20.95;38.67
8637;BME280;4356;49.068;8.658;2023-05-19T03:37:55;100421.31;;;20.95;38.80
8637;BME280;4356;49.068;8.658;2023-05-19T03:40:20;100424.91;;;20.96;38.95
8637;BME280;4356;49.068;8.658;2023-05-19T03:42:46;100411.53;;;20.88;38.78
8637;BME280;4356;49.068;8.658;2023-05-19T03:45:11;100415.72;;;20.90;38.77
8637;BME280;4356;49.068;8.658;2023-05-19T03:47:38;100429.13;;;20.92;38.79
8637;BME280;4356;49.068;8.658;2023-05-19T03:50:04;100436.25;;;20.93;38.96
8637;BME280;4356;49.068;8.658;2023-05-19T03:52:30;100417.81;;;20.88;38.82
8637;BME280;4356;49.068;8.658;2023-05-19T03:54:55;100434.84;;;20.90;39.19
8637;BME280;4356;49.068;8.658;2023-05-19T03:57:22;100435.06;;;20.89;38.85
8637;BME280;4356;49.068;8.658;2023-05-19T03:59:47;100442.41;;;20.88;38.68
8637;BME280;4356;49.068;8.658;2023-05-19T04:02:13;100438.22;;;20.86;38.86
8637;BME280;4356;49.068;8.658;2023-05-19T04:04:38;100438.22;;;20.86;38.88
8637;BME280;4356;49.068;8.658;2023-05-19T04:07:04;100444.53;;;20.86;38.80
8637;BME280;4356;49.068;8.658;2023-05-19T04:09:29;100452.13;;;20.84;38.83
8637;BME280;4356;49.068;8.658;2023-05-19T04:12:00;100449.63;;;20.83;38.82
8637;BME280;4356;49.068;8.658;2023-05-19T04:14:27;100452.13;;;20.84;38.88
8637;BME280;4356;49.068;8.658;2023-05-19T04:16:53;100445.81;;;20.84;38.71
8637;BME280;4356;49.068;8.658;2023-05-19T04:19:19;100447.91;;;20.82;38.92
8637;BME280;4356;49.068;8.658;2023-05-19T04:21:44;100448.75;;;20.82;38.83
8637;BME280;4356;49.068;8.658;2023-05-19T04:24:09;100449.84;;;20.81;38.83
8637;BME280;4356;49.068;8.658;2023-05-19T04:26:35;100448.16;;;20.80;38.94
8637;BME280;4356;49.068;8.658;2023-05-19T04:29:03;100443.75;;;20.79;38.89
8637;BME280;4356;49.068;8.658;2023-05-19T04:31:29;100434.34;;;20.75;38.87
8637;BME280;4356;49.068;8.658;2023-05-19T04:33:55;100438.53;;;20.78;38.86
8637;BME280;4356;49.068;8.658;2023-05-19T04:36:20;100444.59;;;20.80;39.16
8637;BME280;4356;49.068;8.658;2023-05-19T04:38:46;100441.88;;;20.80;39.09
8637;BME280;4356;49.068;8.658;2023-05-19T04:41:12;100441.50;;;20.76;38.81
8637;BME280;4356;49.068;8.658;2023-05-19T04:43:38;100452.41;;;20.76;38.84
8637;BME280;4356;49.068;8.658;2023-05-19T04:46:06;100448.84;;;20.76;38.93
8637;BME280;4356;49.068;8.658;2023-05-19T04:48:34;100458.91;;;20.75;38.81
8637;BME280;4356;49.068;8.658;2023-05-19T04:50:59;100452.41;;;20.76;38.77
8637;BME280;4356;49.068;8.658;2023-05-19T04:53:28;100460.38;;;20.78;38.90
8637;BME280;4356;49.068;8.658;2023-05-19T04:55:54;100452.84;;;20.73;38.90
8637;BME280;4356;49.068;8.658;2023-05-19T04:58:21;100443.63;;;20.68;38.93
8637;BME280;4356;49.068;8.658;2023-05-19T05:00:50;100452.00;;;20.73;38.87
8637;BME280;4356;49.068;8.658;2023-05-19T05:03:16;100453.69;;;20.74;38.92
8637;BME280;4356;49.068;8.658;2023-05-19T05:05:41;100453.47;;;20.75;38.98
8637;BME280;4356;49.068;8.658;2023-05-19T05:08:09;100455.72;;;20.78;38.73
8637;BME280;4356;49.068;8.658;2023-05-19T05:10:35;100445.34;;;20.69;38.61
8637;BME280;4356;49.068;8.658;2023-05-19T05:13:01;100453.63;;;20.80;38.94
8637;BME280;4356;49.068;8.658;2023-05-19T05:15:27;100465.16;;;20.82;38.75
8637;BME280;4356;49.068;8.658;2023-05-19T05:17:54;100441.53;;;20.70;38.98
8637;BME280;4356;49.068;8.658;2023-05-19T05:20:20;100451.97;;;20.79;38.86
8637;BME280;4356;49.068;8.658;2023-05-19T05:22:46;100450.88;;;20.80;38.89
8637;BME280;4356;49.068;8.658;2023-05-19T05:25:12;100459.03;;;20.87;38.93
8637;BME280;4356;49.068;8.658;2023-05-19T05:27:38;100454.63;;;20.86;38.84
8637;BME280;4356;49.068;8.658;2023-05-19T05:30:04;100455.47;;;20.86;38.82
8637;BME280;4356;49.068;8.658;2023-05-19T05:32:30;100456.91;;;20.89;38.85
8637;BME280;4356;49.068;8.658;2023-05-19T05:34:55;100456.47;;;20.92;38.92
8637;BME280;4356;49.068;8.658;2023-05-19T05:37:21;100453.97;;;20.90;39.23
8637;BME280;4356;49.068;8.658;2023-05-19T05:39:46;100447.66;;;20.90;38.98
8637;BME280;4356;49.068;8.658;2023-05-19T05:42:15;100444.75;;;20.85;38.85
8637;BME280;4356;49.068;8.658;2023-05-19T05:44:40;100443.84;;;20.91;38.71
8637;BME280;4356;49.068;8.658;2023-05-19T05:47:07;100455.19;;;20.94;38.83
8637;BME280;4356;49.068;8.658;2023-05-19T05:49:33;100456.22;;;20.93;38.20
8637;BME280;4356;49.068;8.658;2023-05-19T05:52:03;100455.63;;;20.91;38.31
8637;BME280;4356;49.068;8.658;2023-05-19T05:54:30;100446.41;;;20.86;37.75
8637;BME280;4356;49.068;8.658;2023-05-19T05:56:56;100459.03;;;20.87;37.29
8637;BME280;4356;49.068;8.658;2023-05-19T05:59:22;100456.97;;;20.82;36.99
8637;BME280;4356;49.068;8.658;2023-05-19T06:01:47;100447.34;;;20.80;36.62
8637;BME280;4356;49.068;8.658;2023-05-19T06:04:13;100448.00;;;20.75;36.36
8637;BME280;4356;49.068;8.658;2023-05-19T06:06:38;100434.41;;;20.69;36.29
8637;BME280;4356;49.068;8.658;2023-05-19T06:09:04;100436.53;;;20.67;36.35
8637;BME280;4356;49.068;8.658;2023-05-19T06:11:31;100446.59;;;20.66;36.27
8637;BME280;4356;49.068;8.658;2023-05-19T06:13:57;100438.88;;;20.63;36.00
8637;BME280;4356;49.068;8.658;2023-05-19T06:16:22;100445.13;;;20.64;36.12
8637;BME280;4356;49.068;8.658;2023-05-19T06:18:48;100441.81;;;20.62;36.51
8637;BME280;4356;49.068;8.658;2023-05-19T06:21:13;100445.38;;;20.62;36.65
8637;BME280;4356;49.068;8.658;2023-05-19T06:23:42;100444.94;;;20.65;36.72
8637;BME280;4356;49.068;8.658;2023-05-19T06:26:08;100443.25;;;20.64;36.78
8637;BME280;4356;49.068;8.658;2023-05-19T06:28:33;100437.38;;;20.67;36.69
8637;BME280;4356;49.068;8.658;2023-05-19T06:30:59;100436.06;;;20.70;36.69
8637;BME280;4356;49.068;8.658;2023-05-19T06:33:25;100440.03;;;20.74;36.40
8637;BME280;4356;49.068;8.658;2023-05-19T06:35:50;100433.50;;;20.75;36.58
8637;BME280;4356;49.068;8.658;2023-05-19T06:38:16;100438.53;;;20.78;36.32
8637;BME280;4356;49.068;8.658;2023-05-19T06:40:42;100437.44;;;20.79;36.47
8637;BME280;4356;49.068;8.658;2023-05-19T06:43:07;100436.78;;;20.83;36.36
8637;BME280;4356;49.068;8.658;2023-05-19T06:45:33;100440.97;;;20.86;36.35
8637;BME280;4356;49.068;8.658;2023-05-19T06:47:59;100440.06;;;20.92;36.29
8637;BME280;4356;49.068;8.658;2023-05-19T06:50:25;100446.75;;;20.96;36.36
8637;BME280;4356;49.068;8.658;2023-05-19T06:52:51;100438.97;;;20.99;36.28
8637;BME280;4356;49.068;8.658;2023-05-19T06:55:16;100446.31;;;20.99;36.14
8637;BME280;4356;49.068;8.658;2023-05-19T06:57:42;100441.47;;;21.01;36.18
8637;BME280;4356;49.068;8.658;2023-05-19T07:00:08;100447.09;;;21.06;35.93
8637;BME280;4356;49.068;8.658;2023-05-19T07:02:37;100444.13;;;21.07;36.02
8637;BME280;4356;49.068;8.658;2023-05-19T07:05:03;100439.28;;;21.09;36.13
8637;BME280;4356;49.068;8.658;2023-05-19T07:07:28;100434.44;;;21.11;35.85
8637;BME280;4356;49.068;8.658;2023-05-19T07:09:54;100444.47;;;21.17;35.67
8637;BME280;4356;49.068;8.658;2023-05-19T07:12:19;100439.22;;;21.16;36.08
8637;BME280;4356;49.068;8.658;2023-05-19T07:14:45;100437.50;;;21.21;35.86
8637;BME280;4356;49.068;8.658;2023-05-19T07:17:10;100439.38;;;21.21;35.85
8637;BME280;4356;49.068;8.658;2023-05-19T07:19:37;100436.81;;;21.26;35.84
8637;BME280;4356;49.068;8.658;2023-05-19T07:22:02;100440.75;;;21.30;36.18
8637;BME280;4356;49.068;8.658;2023-05-19T07:24:28;100435.06;;;21.31;35.84
8637;BME280;4356;49.068;8.658;2023-05-19T07:26:55;100427.09;;;21.30;36.06
8637;BME280;4356;49.068;8.658;2023-05-19T07:29:20;100432.69;;;21.35;35.89
8637;BME280;4356;49.068;8.658;2023-05-19T07:31:46;100429.13;;;21.34;35.79
8637;BME280;4356;49.068;8.658;2023-05-19T07:34:12;100428.00;;;21.42;35.83
8637;BME280;4356;49.068;8.658;2023-05-19T07:36:37;100423.59;;;21.41;35.83
8637;BME280;4356;49.068;8.658;2023-05-19T07:39:03;100425.63;;;21.45;35.98
8637;BME280;4356;49.068;8.658;2023-05-19T07:41:29;100420.53;;;21.49;35.88
8637;BME280;4356;49.068;8.658;2023-05-19T07:43:54;100408.78;;;21.48;35.91
8637;BME280;4356;49.068;8.658;2023-05-19T07:46:20;100411.91;;;21.52;35.66
8637;BME280;4356;49.068;8.658;2023-05-19T07:48:46;100415.38;;;21.59;35.79
8637;BME280;4356;49.068;8.658;2023-05-19T07:51:12;100417.66;;;21.62;35.91
8637;BME280;4356;49.068;8.658;2023-05-19T07:53:38;100413.84;;;21.63;35.78
8637;BME280;4356;49.068;8.658;2023-05-19T07:56:04;100415.03;;;21.67;35.71
8637;BME280;4356;49.068;8.658;2023-05-19T07:58:30;100408.91;;;21.72;35.77
8637;BME280;4356;49.068;8.658;2023-05-19T08:00:56;100410.31;;;21.74;35.67
8637;BME280;4356;49.068;8.658;2023-05-19T08:03:23;100409.28;;;21.75;35.84
8637;BME280;4356;49.068;8.658;2023-05-19T08:05:48;100402.31;;;21.79;35.75
8637;BME280;4356;49.068;8.658;2023-05-19T08:08:14;100402.06;;;21.81;35.76
8637;BME280;4356;49.068;8.658;2023-05-19T08:10:41;100405.78;;;21.86;35.55
8637;BME280;4356;49.068;8.658;2023-05-19T08:13:07;100411.63;;;21.90;35.50
8637;BME280;4356;49.068;8.658;2023-05-19T08:15:32;100404.03;;;21.92;35.64
8637;BME280;4356;49.068;8.658;2023-05-19T08:17:58;100397.22;;;21.94;35.73
8637;BME280;4356;49.068;8.658;2023-05-19T08:20:23;100405.81;;;21.98;35.37
8637;BME280;4356;49.068;8.658;2023-05-19T08:22:49;100404.66;;;22.05;35.57
8637;BME280;4356;49.068;8.658;2023-05-19T08:25:15;100408.00;;;22.07;35.17
8637;BME280;4356;49.068;8.658;2023-05-19T08:27:40;100400.16;;;22.11;35.52
8637;BME280;4356;49.068;8.658;2023-05-19T08:30:06;100388.16;;;22.12;35.61
8637;BME280;4356;49.068;8.658;2023-05-19T08:32:32;100394.59;;;22.17;35.57
8637;BME280;4356;49.068;8.658;2023-05-19T08:34:58;100391.00;;;22.17;35.63
8637;BME280;4356;49.068;8.658;2023-05-19T08:37:24;100382.56;;;22.18;35.49
8637;BME280;4356;49.068;8.658;2023-05-19T08:39:50;100386.25;;;22.24;35.36
8637;BME280;4356;49.068;8.658;2023-05-19T08:42:15;100379.50;;;22.26;35.38
8637;BME280;4356;49.068;8.658;2023-05-19T08:44:41;100379.63;;;22.31;35.57
8637;BME280;4356;49.068;8.658;2023-05-19T08:47:08;100368.91;;;22.30;35.43
8637;BME280;4356;49.068;8.658;2023-05-19T08:49:51;100381.38;;;22.37;35.43
8637;BME280;4356;49.068;8.658;2023-05-19T08:52:31;100377.34;;;22.40;35.34
8637;BME280;4356;49.068;8.658;2023-05-19T08:55:04;100376.88;;;22.43;35.20
8637;BME280;4356;49.068;8.658;2023-05-19T08:57:35;100374.13;;;22.43;35.38
8637;BME280;4356;49.068;8.658;2023-05-19T09:00:02;100376.19;;;22.47;35.17
8637;BME280;4356;49.068;8.658;2023-05-19T09:02:34;100374.66;;;22.52;35.27
8637;BME280;4356;49.068;8.658;2023-05-19T09:05:01;100373.94;;;22.56;35.14
8637;BME280;4356;49.068;8.658;2023-05-19T09:07:28;100370.75;;;22.59;35.09
8637;BME280;4356;49.068;8.658;2023-05-19T09:09:55;100372.16;;;22.62;35.02
8637;BME280;4356;49.068;8.658;2023-05-19T09:12:21;100364.91;;;22.67;34.97
8637;BME280;4356;49.068;8.658;2023-05-19T09:14:47;100358.38;;;22.68;34.93
8637;BME280;4356;49.068;8.658;2023-05-19T09:17:13;100361.22;;;22.73;35.05
8637;BME280;4356;49.068;8.658;2023-05-19T09:19:43;100369.78;;;22.77;35.06
8637;BME280;4356;49.068;8.658;2023-05-19T09:22:09;100371.00;;;22.81;34.92
8637;BME280;4356;49.068;8.658;2023-05-19T09:24:35;100374.34;;;22.83;34.93
8637;BME280;4356;49.068;8.658;2023-05-19T09:27:02;100368.38;;;22.86;34.83
8637;BME280;4356;49.068;8.658;2023-05-19T09:29:27;100375.84;;;22.90;34.86
8637;BME280;4356;49.068;8.658;2023-05-19T09:31:54;100370.97;;;22.92;35.00
8637;BME280;4356;49.068;8.658;2023-05-19T09:34:25;100358.09;;;22.93;34.98
8637;BME280;4356;49.068;8.658;2023-05-19T09:36:52;100351.53;;;22.94;34.97
8637;BME280;4356;49.068;8.658;2023-05-19T09:39:19;100357.38;;;22.97;34.92
8637;BME280;4356;49.068;8.658;2023-05-19T09:41:45;100363.00;;;23.02;34.89
8637;BME280;4356;49.068;8.658;2023-05-19T09:44:24;100359.75;;;23.05;34.73
8637;BME280;4356;49.068;8.658;2023-05-19T09:46:54;100361.19;;;23.08;34.82
8637;BME280;4356;49.068;8.658;2023-05-19T09:49:21;100357.59;;;23.07;34.93
8637;BME280;4356;49.068;8.658;2023-05-19T09:51:53;100361.28;;;23.13;34.89
8637;BME280;4356;49.068;8.658;2023-05-19T09:54:20;100354.13;;;23.12;34.92
8637;BME280;4356;49.068;8.658;2023-05-19T09:56:55;100353.75;;;23.20;34.43
8637;BME280;4356;49.068;8.658;2023-05-19T09:59:23;100352.81;;;23.26;34.73
8637;BME280;4356;49.068;8.658;2023-05-19T10:01:51;100341.84;;;23.26;34.65
8637;BME280;4356;49.068;8.658;2023-05-19T10:04:18;100345.78;;;23.30;34.79
8637;BME280;4356;49.068;8.658;2023-05-19T10:06:47;100347.22;;;23.32;34.67
8637;BME280;4356;49.068;8.658;2023-05-19T10:09:21;100344.72;;;23.31;34.52
8637;BME280;4356;49.068;8.658;2023-05-19T10:11:51;100328.94;;;23.26;34.52
8637;BME280;4356;49.068;8.658;2023-05-19T10:14:21;100324.91;;;23.29;34.79
8637;BME280;4356;49.068;8.658;2023-05-19T10:16:52;100343.25;;;23.40;34.64
8637;BME280;4356;49.068;8.658;2023-05-19T10:19:20;100334.44;;;23.38;34.72
8637;BME280;4356;49.068;8.658;2023-05-19T10:21:46;100340.25;;;23.41;34.66
8637;BME280;4356;49.068;8.658;2023-05-19T10:24:12;100342.75;;;23.43;34.60
8637;BME280;4356;49.068;8.658;2023-05-19T10:26:40;100325.59;;;23.36;34.54
8637;BME280;4356;49.068;8.658;2023-05-19T10:29:10;100332.28;;;23.40;34.65
8637;BME280;4356;49.068;8.658;2023-05-19T10:31:38;100334.63;;;23.48;34.49
8637;BME280;4356;49.068;8.658;2023-05-19T10:36:45;100334.75;;;23.53;34.44
8637;BME280;4356;49.068;8.658;2023-05-19T10:39:21;100332.00;;;23.53;34.57
8637;BME280;4356;49.068;8.658;2023-05-19T10:42:11;100334.59;;;23.60;34.57
8637;BME280;4356;49.068;8.658;2023-05-19T10:45:03;100340.91;;;23.60;34.68
8637;BME280;4356;49.068;8.658;2023-05-19T10:47:31;100343.16;;;23.63;34.68
8637;BME280;4356;49.068;8.658;2023-05-19T10:50:03;100330.53;;;23.62;34.48
8637;BME280;4356;49.068;8.658;2023-05-19T10:52:35;100334.69;;;23.65;34.58
8637;BME280;4356;49.068;8.658;2023-05-19T10:55:02;100335.03;;;23.68;34.50
8637;BME280;4356;49.068;8.658;2023-05-19T10:57:29;100333.38;;;23.67;34.70
8637;BME280;4356;49.068;8.658;2023-05-19T10:59:58;100333.19;;;23.74;34.63
8637;BME280;4356;49.068;8.658;2023-05-19T11:02:36;100336.53;;;23.76;34.70
8637;BME280;4356;49.068;8.658;2023-05-19T11:05:09;100321.75;;;23.77;34.87
8637;BME280;4356;49.068;8.658;2023-05-19T11:07:40;100327.59;;;23.80;34.64
8637;BME280;4356;49.068;8.658;2023-05-19T11:10:07;100329.22;;;23.81;34.73
8637;BME280;4356;49.068;8.658;2023-05-19T11:12:41;100329.31;;;23.86;34.57
8637;BME280;4356;49.068;8.658;2023-05-19T11:15:14;100327.16;;;23.88;34.57
8637;BME280;4356;49.068;8.658;2023-05-19T11:17:46;100320.59;;;23.89;34.62
8637;BME280;4356;49.068;8.658;2023-05-19T11:20:22;100319.25;;;23.92;34.51
8637;BME280;4356;49.068;8.658;2023-05-19T11:23:06;100315.19;;;23.94;34.62
8637;BME280;4356;49.068;8.658;2023-05-19T11:25:48;100309.72;;;23.94;34.47
8637;BME280;4356;49.068;8.658;2023-05-19T11:28:17;100308.63;;;23.95;34.58
8637;BME280;4356;49.068;8.658;2023-05-19T11:30:47;100314.44;;;23.99;34.50
8637;BME280;4356;49.068;8.658;2023-05-19T11:33:22;100304.94;;;24.01;34.39
8637;BME280;4356;49.068;8.658;2023-05-19T11:35:55;100310.50;;;24.06;34.51
8637;BME280;4356;49.068;8.658;2023-05-19T11:38:23;100302.75;;;24.03;34.45
8637;BME280;4356;49.068;8.658;2023-05-19T11:40:53;100313.56;;;24.10;34.41
8637;BME280;4356;49.068;8.658;2023-05-19T11:43:22;100306.19;;;24.10;34.51
8637;BME280;4356;49.068;8.658;2023-05-19T11:45:51;100301.28;;;24.12;34.60
8637;BME280;4356;49.068;8.658;2023-05-19T11:48:20;100304.84;;;24.13;34.47
8637;BME280;4356;49.068;8.658;2023-05-19T11:50:46;100305.19;;;24.16;34.42
8637;BME280;4356;49.068;8.658;2023-05-19T11:53:12;100307.69;;;24.18;34.58
8637;BME280;4356;49.068;8.658;2023-05-19T11:55:44;100313.75;;;24.20;34.51
8637;BME280;4356;49.068;8.658;2023-05-19T11:58:10;100306.59;;;24.19;34.49
8637;BME280;4356;49.068;8.658;2023-05-19T12:00:41;100312.91;;;24.19;34.27
8637;BME280;4356;49.068;8.658;2023-05-19T12:03:07;100310.69;;;24.16;34.31
8637;BME280;4356;49.068;8.658;2023-05-19T12:05:36;100313.81;;;24.08;34.27
8637;BME280;4356;49.068;8.658;2023-05-19T12:08:02;100324.09;;;24.13;34.19
8637;BME280;4356;49.068;8.658;2023-05-19T12:10:29;100316.81;;;24.07;34.13
8637;BME280;4356;49.068;8.658;2023-05-19T12:12:56;100318.72;;;24.06;33.75
8637;BME280;4356;49.068;8.658;2023-05-19T12:15:24;100305.41;;;23.98;33.56
8637;BME280;4356;49.068;8.658;2023-05-19T12:17:57;100321.16;;;24.03;33.51
8637;BME280;4356;49.068;8.658;2023-05-19T12:20:24;100313.16;;;24.01;33.56
8637;BME280;4356;49.068;8.658;2023-05-19T12:22:51;100308.13;;;23.98;33.42
8637;BME280;4356;49.068;8.658;2023-05-19T12:25:17;100310.31;;;23.96;33.56
8637;BME280;4356;49.068;8.658;2023-05-19T12:27:43;100310.31;;;23.96;33.70
8637;BME280;4356;49.068;8.658;2023-05-19T12:30:10;100316.38;;;23.98;33.75
8637;BME280;4356;49.068;8.658;2023-05-19T12:32:37;100318.03;;;23.99;33.81
8637;BME280;4356;49.068;8.658;2023-05-19T12:35:04;100324.97;;;24.02;33.72
8637;BME280;4356;49.068;8.658;2023-05-19T12:37:33;100315.78;;;23.96;33.76
8637;BME280;4356;49.068;8.658;2023-05-19T12:39:59;100317.00;;;24.00;34.04
8637;BME280;4356;49.068;8.658;2023-05-19T12:42:26;100317.59;;;24.02;33.95
8637;BME280;4356;49.068;8.658;2023-05-19T12:45:00;100314.69;;;23.97;33.92
8637;BME280;4356;49.068;8.658;2023-05-19T12:47:34;100313.38;;;24.00;33.92
8637;BME280;4356;49.068;8.658;2023-05-19T12:50:07;100321.41;;;24.01;34.07
8637;BME280;4356;49.068;8.658;2023-05-19T12:52:46;100315.28;;;23.99;34.03
8637;BME280;4356;49.068;8.658;2023-05-19T12:55:12;100322.69;;;23.99;34.08
8637;BME280;4356;49.068;8.658;2023-05-19T12:57:48;100319.75;;;24.00;33.83
8637;BME280;4356;49.068;8.658;2023-05-19T13:00:21;100318.66;;;24.01;33.99
8637;BME280;4356;49.068;8.658;2023-05-19T13:03:00;100317.19;;;23.99;34.03
8637;BME280;4356;49.068;8.658;2023-05-19T13:05:31;100318.66;;;24.01;33.97
8637;BME280;4356;49.068;8.658;2023-05-19T13:08:00;100317.81;;;24.01;33.84
8637;BME280;4356;49.068;8.658;2023-05-19T13:10:27;100307.56;;;23.96;34.17
8637;BME280;4356;49.068;8.658;2023-05-19T13:12:54;100308.94;;;23.99;33.81
8637;BME280;4356;49.068;8.658;2023-05-19T13:15:22;100315.06;;;24.01;34.06
8637;BME280;4356;49.068;8.658;2023-05-19T13:17:49;100311.50;;;24.00;34.04
8637;BME280;4356;49.068;8.658;2023-05-19T13:20:14;100305.16;;;24.00;33.92
8637;BME280;4356;49.068;8.658;2023-05-19T13:22:40;100314.25;;;24.00;34.07
8637;BME280;4356;49.068;8.658;2023-05-19T13:25:06;100293.81;;;23.96;34.13
8637;BME280;4356;49.068;8.658;2023-05-19T13:27:32;100290.84;;;23.98;34.11
8637;BME280;4356;49.068;8.658;2023-05-19T13:29:57;100299.06;;;23.98;34.10
8637;BME280;4356;49.068;8.658;2023-05-19T13:32:23;100304.31;;;23.99;33.98
8637;BME280;4356;49.068;8.658;2023-05-19T13:34:48;100295.47;;;23.97;34.06